sensor_id;sensor_type;location;lat;lon;timestamp;P1;durP1;ratioP1;P2;durP2;ratioP2
45065;SDS011;30830;53.704;10.004;2023-04-06T00:01:01;5.28;;;3.67;;
45065;SDS011;30830;53.704;10.004;2023-04-06T00:03:26;5.88;;;3.75;;
45065;SDS011;30830;53.704;10.004;2023-04-06T00:05:52;6.00;;;3.60;;
45065;SDS011;30830;53.704;10.004;2023-04-06T00:08:18;4.13;;;3.45;;
45065;SDS011;30830;53.704;10.004;2023-04-06T00:10:43;4.88;;;3.60;;
45065;SDS011;30830;53.704;10.004;2023-04-06T00:13:09;3.30;;;3.00;;
45065;SDS011;30830;53.704;10.004;2023-04-06T00:15:35;3.97;;;3.55;;
45065;SDS011;30830;53.704;10.004;2023-04-06T00:18:02;5.20;;;3.65;;
45065;SDS011;30830;53.704;10.004;2023-04-06T00:20:27;4.57;;;3.72;;
45065;SDS011;30830;53.704;10.004;2023-04-06T00:22:53;4.70;;;3.80;;
45065;SDS011;30830;53.704;10.004;2023-04-06T00:25:19;4.50;;;3.90;;
45065;SDS011;30830;53.704;10.004;2023-04-06T00:27:45;4.65;;;3.58;;
45065;SDS011;30830;53.704;10.004;2023-04-06T00:30:10;6.28;;;4.05;;
45065;SDS011;30830;53.704;10.004;2023-04-06T00:32:36;5.32;;;3.88;;
45065;SDS011;30830;53.704;10.004;2023-04-06T00:35:04;5.63;;;4.18;;
45065;SDS011;30830;53.704;10.004;2023-04-06T00:37:31;6.53;;;4.00;;
45065;SDS011;30830;53.704;10.004;2023-04-06T00:39:57;5.00;;;4.15;;
45065;SDS011;30830;53.704;10.004;2023-04-06T00:42:23;5.70;;;4.00;;
45065;SDS011;30830;53.704;10.004;2023-04-06T00:44:52;4.53;;;3.72;;
45065;SDS011;30830;53.704;10.004;2023-04-06T00:47:19;5.35;;;3.70;;
45065;SDS011;30830;53.704;10.004;2023-04-06T00:49:45;4.95;;;3.95;;
45065;SDS011;30830;53.704;10.004;2023-04-06T00:52:12;4.63;;;3.83;;
45065;SDS011;30830;53.704;10.004;2023-04-06T00:54:37;6.60;;;3.85;;
45065;SDS011;30830;53.704;10.004;2023-04-06T00:57:03;5.25;;;3.72;;
45065;SDS011;30830;53.704;10.004;2023-04-06T00:59:29;9.88;;;4.40;;
45065;SDS011;30830;53.704;10.004;2023-04-06T01:01:55;6.63;;;4.70;;
45065;SDS011;30830;53.704;10.004;2023-04-06T01:04:20;8.05;;;3.55;;
45065;SDS011;30830;53.704;10.004;2023-04-06T01:06:48;7.18;;;4.28;;
45065;SDS011;30830;53.704;10.004;2023-04-06T01:09:14;5.55;;;4.95;;
45065;SDS011;30830;53.704;10.004;2023-04-06T01:11:40;6.15;;;4.50;;
45065;SDS011;30830;53.704;10.004;2023-04-06T01:14:06;4.90;;;4.05;;
45065;SDS011;30830;53.704;10.004;2023-04-06T01:16:32;5.30;;;3.72;;
45065;SDS011;30830;53.704;10.004;2023-04-06T01:18:57;8.27;;;4.43;;
45065;SDS011;30830;53.704;10.004;2023-04-06T01:21:23;5.82;;;4.32;;
45065;SDS011;30830;53.704;10.004;2023-04-06T01:23:50;7.38;;;4.78;;
45065;SDS011;30830;53.704;10.004;2023-04-06T01:26:15;7.18;;;4.53;;
45065;SDS011;30830;53.704;10.004;2023-04-06T01:28:41;7.00;;;4.30;;
45065;SDS011;30830;53.704;10.004;2023-04-06T01:31:07;4.53;;;3.95;;
45065;SDS011;30830;53.704;10.004;2023-04-06T01:33:34;5.35;;;4.30;;
45065;SDS011;30830;53.704;10.004;2023-04-06T01:36:00;5.55;;;4.63;;
45065;SDS011;30830;53.704;10.004;2023-04-06T01:38:26;5.97;;;4.97;;
45065;SDS011;30830;53.704;10.004;2023-04-06T01:40:52;5.30;;;4.32;;
45065;SDS011;30830;53.704;10.004;2023-04-06T01:43:20;6.15;;;4.50;;
45065;SDS011;30830;53.704;10.004;2023-04-06T01:45:46;8.13;;;4.72;;
45065;SDS011;30830;53.704;10.004;2023-04-06T01:48:12;5.35;;;4.30;;
45065;SDS011;30830;53.704;10.004;2023-04-06T01:50:37;5.53;;;4.32;;
45065;SDS011;30830;53.704;10.004;2023-04-06T01:53:03;6.90;;;4.20;;
45065;SDS011;30830;53.704;10.004;2023-04-06T01:55:28;5.95;;;4.22;;
45065;SDS011;30830;53.704;10.004;2023-04-06T01:57:54;6.35;;;4.63;;
45065;SDS011;30830;53.704;10.004;2023-04-06T02:00:20;8.05;;;5.15;;
45065;SDS011;30830;53.704;10.004;2023-04-06T02:02:45;7.35;;;5.13;;
45065;SDS011;30830;53.704;10.004;2023-04-06T02:05:11;6.35;;;4.82;;
45065;SDS011;30830;53.704;10.004;2023-04-06T02:07:37;5.95;;;4.63;;
45065;SDS011;30830;53.704;10.004;2023-04-06T02:10:03;5.90;;;4.63;;
45065;SDS011;30830;53.704;10.004;2023-04-06T02:12:29;6.05;;;4.30;;
45065;SDS011;30830;53.704;10.004;2023-04-06T02:14:54;6.85;;;5.72;;
45065;SDS011;30830;53.704;10.004;2023-04-06T02:17:20;5.38;;;4.55;;
45065;SDS011;30830;53.704;10.004;2023-04-06T02:19:45;6.70;;;4.45;;
45065;SDS011;30830;53.704;10.004;2023-04-06T02:22:11;6.50;;;4.50;;
45065;SDS011;30830;53.704;10.004;2023-04-06T02:24:37;6.75;;;4.57;;
45065;SDS011;30830;53.704;10.004;2023-04-06T02:27:02;7.35;;;5.07;;
45065;SDS011;30830;53.704;10.004;2023-04-06T02:29:28;5.47;;;4.57;;
45065;SDS011;30830;53.704;10.004;2023-04-06T02:31:54;5.78;;;4.60;;
45065;SDS011;30830;53.704;10.004;2023-04-06T02:34:19;7.03;;;4.10;;
45065;SDS011;30830;53.704;10.004;2023-04-06T02:36:45;6.45;;;3.80;;
45065;SDS011;30830;53.704;10.004;2023-04-06T02:39:12;6.20;;;4.13;;
45065;SDS011;30830;53.704;10.004;2023-04-06T02:41:38;8.50;;;4.85;;
45065;SDS011;30830;53.704;10.004;2023-04-06T02:44:07;7.22;;;5.07;;
45065;SDS011;30830;53.704;10.004;2023-04-06T02:46:34;5.95;;;4.18;;
45065;SDS011;30830;53.704;10.004;2023-04-06T02:48:59;11.13;;;4.50;;
45065;SDS011;30830;53.704;10.004;2023-04-06T02:51:25;5.20;;;4.15;;
45065;SDS011;30830;53.704;10.004;2023-04-06T02:53:51;6.15;;;4.05;;
45065;SDS011;30830;53.704;10.004;2023-04-06T02:56:17;8.52;;;4.95;;
45065;SDS011;30830;53.704;10.004;2023-04-06T02:58:43;5.35;;;4.20;;
45065;SDS011;30830;53.704;10.004;2023-04-06T03:01:09;6.90;;;4.72;;
45065;SDS011;30830;53.704;10.004;2023-04-06T03:03:34;6.65;;;4.78;;
45065;SDS011;30830;53.704;10.004;2023-04-06T03:06:00;6.80;;;4.15;;
45065;SDS011;30830;53.704;10.004;2023-04-06T03:08:26;8.77;;;5.25;;
45065;SDS011;30830;53.704;10.004;2023-04-06T03:10:52;7.70;;;5.10;;
45065;SDS011;30830;53.704;10.004;2023-04-06T03:13:17;5.68;;;4.53;;
45065;SDS011;30830;53.704;10.004;2023-04-06T03:15:43;7.32;;;5.50;;
45065;SDS011;30830;53.704;10.004;2023-04-06T03:18:08;7.78;;;5.05;;
45065;SDS011;30830;53.704;10.004;2023-04-06T03:20:34;9.73;;;5.35;;
45065;SDS011;30830;53.704;10.004;2023-04-06T03:23:00;8.48;;;5.72;;
45065;SDS011;30830;53.704;10.004;2023-04-06T03:25:25;9.98;;;5.65;;
45065;SDS011;30830;53.704;10.004;2023-04-06T03:27:51;6.40;;;4.32;;
45065;SDS011;30830;53.704;10.004;2023-04-06T03:30:17;6.28;;;4.70;;
45065;SDS011;30830;53.704;10.004;2023-04-06T03:32:43;7.50;;;5.50;;
45065;SDS011;30830;53.704;10.004;2023-04-06T03:35:09;8.13;;;5.68;;
45065;SDS011;30830;53.704;10.004;2023-04-06T03:37:35;7.80;;;6.07;;
45065;SDS011;30830;53.704;10.004;2023-04-06T03:40:01;8.90;;;5.82;;
45065;SDS011;30830;53.704;10.004;2023-04-06T03:42:27;7.72;;;6.32;;
45065;SDS011;30830;53.704;10.004;2023-04-06T03:44:53;9.73;;;6.00;;
45065;SDS011;30830;53.704;10.004;2023-04-06T03:47:18;11.65;;;6.10;;
45065;SDS011;30830;53.704;10.004;2023-04-06T03:49:44;7.13;;;5.65;;
45065;SDS011;30830;53.704;10.004;2023-04-06T03:52:10;8.75;;;6.63;;
45065;SDS011;30830;53.704;10.004;2023-04-06T03:54:36;9.68;;;6.55;;
45065;SDS011;30830;53.704;10.004;2023-04-06T03:57:02;8.38;;;6.05;;
45065;SDS011;30830;53.704;10.004;2023-04-06T03:59:27;9.15;;;6.03;;
45065;SDS011;30830;53.704;10.004;2023-04-06T04:01:53;8.15;;;5.68;;
45065;SDS011;30830;53.704;10.004;2023-04-06T04:04:19;10.55;;;6.35;;
45065;SDS011;30830;53.704;10.004;2023-04-06T04:06:44;9.63;;;6.40;;
45065;SDS011;30830;53.704;10.004;2023-04-06T04:09:10;8.60;;;6.43;;
45065;SDS011;30830;53.704;10.004;2023-04-06T04:11:36;10.95;;;6.68;;
45065;SDS011;30830;53.704;10.004;2023-04-06T04:14:01;9.98;;;6.75;;
45065;SDS011;30830;53.704;10.004;2023-04-06T04:16:27;9.48;;;6.07;;
45065;SDS011;30830;53.704;10.004;2023-04-06T04:18:52;7.68;;;6.53;;
45065;SDS011;30830;53.704;10.004;2023-04-06T04:21:18;8.43;;;6.53;;
45065;SDS011;30830;53.704;10.004;2023-04-06T04:23:44;9.68;;;5.88;;
45065;SDS011;30830;53.704;10.004;2023-04-06T04:26:09;8.98;;;6.13;;
45065;SDS011;30830;53.704;10.004;2023-04-06T04:28:35;8.15;;;6.28;;
45065;SDS011;30830;53.704;10.004;2023-04-06T04:31:01;8.90;;;6.60;;
45065;SDS011;30830;53.704;10.004;2023-04-06T04:33:26;9.25;;;6.57;;
45065;SDS011;30830;53.704;10.004;2023-04-06T04:35:52;10.65;;;6.85;;
45065;SDS011;30830;53.704;10.004;2023-04-06T04:38:17;9.20;;;6.50;;
45065;SDS011;30830;53.704;10.004;2023-04-06T04:40:43;9.48;;;6.97;;
45065;SDS011;30830;53.704;10.004;2023-04-06T04:43:09;9.48;;;6.53;;
45065;SDS011;30830;53.704;10.004;2023-04-06T04:45:35;9.80;;;6.95;;
45065;SDS011;30830;53.704;10.004;2023-04-06T04:48:00;9.75;;;6.78;;
45065;SDS011;30830;53.704;10.004;2023-04-06T04:50:26;8.63;;;6.35;;
45065;SDS011;30830;53.704;10.004;2023-04-06T04:52:51;8.75;;;6.70;;
45065;SDS011;30830;53.704;10.004;2023-04-06T04:55:17;11.02;;;6.53;;
45065;SDS011;30830;53.704;10.004;2023-04-06T04:57:43;11.27;;;7.55;;
45065;SDS011;30830;53.704;10.004;2023-04-06T05:00:08;10.82;;;6.68;;
45065;SDS011;30830;53.704;10.004;2023-04-06T05:02:34;10.57;;;7.50;;
45065;SDS011;30830;53.704;10.004;2023-04-06T05:05:00;9.75;;;7.07;;
45065;SDS011;30830;53.704;10.004;2023-04-06T05:07:26;10.93;;;8.18;;
45065;SDS011;30830;53.704;10.004;2023-04-06T05:09:51;10.73;;;7.57;;
45065;SDS011;30830;53.704;10.004;2023-04-06T05:12:18;10.63;;;7.50;;
45065;SDS011;30830;53.704;10.004;2023-04-06T05:14:44;12.15;;;6.95;;
45065;SDS011;30830;53.704;10.004;2023-04-06T05:17:10;10.82;;;7.82;;
45065;SDS011;30830;53.704;10.004;2023-04-06T05:19:35;10.77;;;7.43;;
45065;SDS011;30830;53.704;10.004;2023-04-06T05:22:01;10.82;;;7.15;;
45065;SDS011;30830;53.704;10.004;2023-04-06T05:24:27;9.15;;;7.22;;
45065;SDS011;30830;53.704;10.004;2023-04-06T05:26:52;11.15;;;7.45;;
45065;SDS011;30830;53.704;10.004;2023-04-06T05:29:18;12.15;;;8.38;;
45065;SDS011;30830;53.704;10.004;2023-04-06T05:31:45;11.18;;;8.18;;
45065;SDS011;30830;53.704;10.004;2023-04-06T05:34:11;11.00;;;8.32;;
45065;SDS011;30830;53.704;10.004;2023-04-06T05:36:37;10.82;;;8.05;;
45065;SDS011;30830;53.704;10.004;2023-04-06T05:39:03;11.85;;;8.07;;
45065;SDS011;30830;53.704;10.004;2023-04-06T05:41:29;12.63;;;8.32;;
45065;SDS011;30830;53.704;10.004;2023-04-06T05:43:55;10.48;;;7.57;;
45065;SDS011;30830;53.704;10.004;2023-04-06T05:46:20;12.05;;;8.18;;
45065;SDS011;30830;53.704;10.004;2023-04-06T05:48:46;10.95;;;7.75;;
45065;SDS011;30830;53.704;10.004;2023-04-06T05:51:12;11.10;;;8.05;;
45065;SDS011;30830;53.704;10.004;2023-04-06T05:53:37;13.60;;;8.93;;
45065;SDS011;30830;53.704;10.004;2023-04-06T05:56:03;10.93;;;8.02;;
45065;SDS011;30830;53.704;10.004;2023-04-06T05:58:29;12.25;;;8.88;;
45065;SDS011;30830;53.704;10.004;2023-04-06T06:01:01;11.85;;;8.52;;
45065;SDS011;30830;53.704;10.004;2023-04-06T06:03:28;11.80;;;8.43;;
45065;SDS011;30830;53.704;10.004;2023-04-06T06:05:59;10.90;;;7.72;;
45065;SDS011;30830;53.704;10.004;2023-04-06T06:08:25;13.77;;;8.80;;
45065;SDS011;30830;53.704;10.004;2023-04-06T06:10:51;10.77;;;8.10;;
45065;SDS011;30830;53.704;10.004;2023-04-06T06:13:17;11.98;;;8.05;;
45065;SDS011;30830;53.704;10.004;2023-04-06T06:15:42;11.88;;;8.18;;
45065;SDS011;30830;53.704;10.004;2023-04-06T06:18:08;13.32;;;9.07;;
45065;SDS011;30830;53.704;10.004;2023-04-06T06:20:34;13.02;;;9.25;;
45065;SDS011;30830;53.704;10.004;2023-04-06T06:22:59;13.80;;;10.10;;
45065;SDS011;30830;53.704;10.004;2023-04-06T06:25:25;13.23;;;9.15;;
45065;SDS011;30830;53.704;10.004;2023-04-06T06:27:51;13.60;;;9.52;;
45065;SDS011;30830;53.704;10.004;2023-04-06T06:30:16;14.13;;;9.63;;
45065;SDS011;30830;53.704;10.004;2023-04-06T06:32:42;11.27;;;9.38;;
45065;SDS011;30830;53.704;10.004;2023-04-06T06:35:08;12.68;;;9.60;;
45065;SDS011;30830;53.704;10.004;2023-04-06T06:37:34;13.80;;;8.82;;
45065;SDS011;30830;53.704;10.004;2023-04-06T06:39:59;11.35;;;9.23;;
45065;SDS011;30830;53.704;10.004;2023-04-06T06:42:25;11.48;;;8.20;;
45065;SDS011;30830;53.704;10.004;2023-04-06T06:44:51;12.25;;;9.27;;
45065;SDS011;30830;53.704;10.004;2023-04-06T06:47:17;16.55;;;9.60;;
45065;SDS011;30830;53.704;10.004;2023-04-06T06:49:42;15.93;;;9.85;;
45065;SDS011;30830;53.704;10.004;2023-04-06T06:52:08;13.65;;;9.05;;
45065;SDS011;30830;53.704;10.004;2023-04-06T06:54:34;14.27;;;10.27;;
45065;SDS011;30830;53.704;10.004;2023-04-06T06:56:59;11.77;;;8.73;;
45065;SDS011;30830;53.704;10.004;2023-04-06T06:59:25;13.73;;;10.48;;
45065;SDS011;30830;53.704;10.004;2023-04-06T07:01:51;11.48;;;9.02;;
45065;SDS011;30830;53.704;10.004;2023-04-06T07:04:17;10.93;;;9.18;;
45065;SDS011;30830;53.704;10.004;2023-04-06T07:06:42;11.52;;;8.93;;
45065;SDS011;30830;53.704;10.004;2023-04-06T07:09:08;12.98;;;8.68;;
45065;SDS011;30830;53.704;10.004;2023-04-06T07:11:34;12.73;;;9.15;;
45065;SDS011;30830;53.704;10.004;2023-04-06T07:14:00;10.23;;;8.60;;
45065;SDS011;30830;53.704;10.004;2023-04-06T07:16:25;10.52;;;8.30;;
45065;SDS011;30830;53.704;10.004;2023-04-06T07:18:51;11.85;;;7.85;;
45065;SDS011;30830;53.704;10.004;2023-04-06T07:21:17;9.40;;;8.27;;
45065;SDS011;30830;53.704;10.004;2023-04-06T07:23:42;10.30;;;7.63;;
45065;SDS011;30830;53.704;10.004;2023-04-06T07:26:08;11.25;;;7.85;;
45065;SDS011;30830;53.704;10.004;2023-04-06T07:28:34;8.38;;;7.05;;
45065;SDS011;30830;53.704;10.004;2023-04-06T07:30:59;9.02;;;6.65;;
45065;SDS011;30830;53.704;10.004;2023-04-06T07:33:25;9.35;;;7.30;;
45065;SDS011;30830;53.704;10.004;2023-04-06T07:35:54;9.88;;;6.55;;
45065;SDS011;30830;53.704;10.004;2023-04-06T07:38:21;7.60;;;6.30;;
45065;SDS011;30830;53.704;10.004;2023-04-06T07:40:47;8.95;;;6.20;;
45065;SDS011;30830;53.704;10.004;2023-04-06T07:43:12;8.45;;;6.10;;
45065;SDS011;30830;53.704;10.004;2023-04-06T07:45:38;7.32;;;5.82;;
45065;SDS011;30830;53.704;10.004;2023-04-06T07:48:03;8.73;;;5.20;;
45065;SDS011;30830;53.704;10.004;2023-04-06T07:50:29;5.43;;;4.82;;
45065;SDS011;30830;53.704;10.004;2023-04-06T07:52:55;6.10;;;4.57;;
45065;SDS011;30830;53.704;10.004;2023-04-06T07:55:20;6.22;;;4.80;;
45065;SDS011;30830;53.704;10.004;2023-04-06T07:57:46;6.10;;;4.55;;
45065;SDS011;30830;53.704;10.004;2023-04-06T08:00:12;6.25;;;4.38;;
45065;SDS011;30830;53.704;10.004;2023-04-06T08:02:38;6.80;;;4.47;;
45065;SDS011;30830;53.704;10.004;2023-04-06T08:05:04;7.60;;;5.35;;
45065;SDS011;30830;53.704;10.004;2023-04-06T08:07:30;7.90;;;4.13;;
45065;SDS011;30830;53.704;10.004;2023-04-06T08:09:56;5.95;;;3.47;;
45065;SDS011;30830;53.704;10.004;2023-04-06T08:12:22;7.53;;;4.18;;
45065;SDS011;30830;53.704;10.004;2023-04-06T08:14:48;6.32;;;4.38;;
45065;SDS011;30830;53.704;10.004;2023-04-06T08:17:13;4.07;;;3.63;;
45065;SDS011;30830;53.704;10.004;2023-04-06T08:19:39;5.00;;;3.80;;
45065;SDS011;30830;53.704;10.004;2023-04-06T08:22:06;5.90;;;4.25;;
45065;SDS011;30830;53.704;10.004;2023-04-06T08:24:32;5.72;;;3.97;;
45065;SDS011;30830;53.704;10.004;2023-04-06T08:26:58;4.25;;;3.35;;
45065;SDS011;30830;53.704;10.004;2023-04-06T08:29:24;6.18;;;3.50;;
45065;SDS011;30830;53.704;10.004;2023-04-06T08:31:49;3.85;;;3.33;;
45065;SDS011;30830;53.704;10.004;2023-04-06T08:34:15;4.60;;;3.28;;
45065;SDS011;30830;53.704;10.004;2023-04-06T08:36:41;4.15;;;3.55;;
45065;SDS011;30830;53.704;10.004;2023-04-06T08:39:06;4.45;;;3.38;;
45065;SDS011;30830;53.704;10.004;2023-04-06T08:41:32;5.40;;;3.45;;
45065;SDS011;30830;53.704;10.004;2023-04-06T08:44:00;3.88;;;2.90;;
45065;SDS011;30830;53.704;10.004;2023-04-06T08:46:27;4.35;;;3.25;;
45065;SDS011;30830;53.704;10.004;2023-04-06T08:48:57;3.90;;;2.97;;
45065;SDS011;30830;53.704;10.004;2023-04-06T08:51:25;5.55;;;3.33;;
45065;SDS011;30830;53.704;10.004;2023-04-06T08:53:55;5.68;;;3.20;;
45065;SDS011;30830;53.704;10.004;2023-04-06T08:56:22;7.45;;;3.13;;
45065;SDS011;30830;53.704;10.004;2023-04-06T08:58:52;5.18;;;3.38;;
45065;SDS011;30830;53.704;10.004;2023-04-06T09:01:22;5.65;;;3.47;;
45065;SDS011;30830;53.704;10.004;2023-04-06T09:03:50;5.35;;;3.45;;
45065;SDS011;30830;53.704;10.004;2023-04-06T09:06:20;5.28;;;3.60;;
45065;SDS011;30830;53.704;10.004;2023-04-06T09:08:46;4.88;;;3.42;;
45065;SDS011;30830;53.704;10.004;2023-04-06T09:11:12;5.85;;;3.53;;
45065;SDS011;30830;53.704;10.004;2023-04-06T09:13:51;6.53;;;3.55;;
45065;SDS011;30830;53.704;10.004;2023-04-06T09:16:19;5.70;;;3.53;;
45065;SDS011;30830;53.704;10.004;2023-04-06T09:18:45;4.47;;;3.83;;
45065;SDS011;30830;53.704;10.004;2023-04-06T09:21:11;3.72;;;2.83;;
45065;SDS011;30830;53.704;10.004;2023-04-06T09:23:37;3.15;;;2.65;;
45065;SDS011;30830;53.704;10.004;2023-04-06T09:26:13;4.80;;;2.65;;
45065;SDS011;30830;53.704;10.004;2023-04-06T09:28:44;5.68;;;3.03;;
45065;SDS011;30830;53.704;10.004;2023-04-06T09:31:11;4.90;;;3.10;;
45065;SDS011;30830;53.704;10.004;2023-04-06T09:33:38;4.35;;;2.60;;
45065;SDS011;30830;53.704;10.004;2023-04-06T09:36:09;3.63;;;2.80;;
45065;SDS011;30830;53.704;10.004;2023-04-06T09:38:38;6.15;;;3.25;;
45065;SDS011;30830;53.704;10.004;2023-04-06T09:41:05;3.70;;;2.85;;
45065;SDS011;30830;53.704;10.004;2023-04-06T09:43:30;2.70;;;2.50;;
45065;SDS011;30830;53.704;10.004;2023-04-06T09:45:56;4.68;;;2.70;;
45065;SDS011;30830;53.704;10.004;2023-04-06T09:48:24;4.70;;;2.90;;
45065;SDS011;30830;53.704;10.004;2023-04-06T09:50:51;4.35;;;2.63;;
45065;SDS011;30830;53.704;10.004;2023-04-06T09:53:24;6.03;;;3.38;;
45065;SDS011;30830;53.704;10.004;2023-04-06T09:55:53;7.07;;;2.80;;
45065;SDS011;30830;53.704;10.004;2023-04-06T09:58:25;7.43;;;3.70;;
45065;SDS011;30830;53.704;10.004;2023-04-06T10:00:59;7.15;;;3.30;;
45065;SDS011;30830;53.704;10.004;2023-04-06T10:03:39;5.13;;;3.22;;
45065;SDS011;30830;53.704;10.004;2023-04-06T10:06:09;3.55;;;2.88;;
45065;SDS011;30830;53.704;10.004;2023-04-06T10:08:36;4.68;;;3.13;;
45065;SDS011;30830;53.704;10.004;2023-04-06T10:11:05;3.25;;;2.95;;
45065;SDS011;30830;53.704;10.004;2023-04-06T10:13:31;4.47;;;3.60;;
45065;SDS011;30830;53.704;10.004;2023-04-06T10:16:00;4.90;;;3.80;;
45065;SDS011;30830;53.704;10.004;2023-04-06T10:18:29;3.60;;;3.25;;
45065;SDS011;30830;53.704;10.004;2023-04-06T10:20:56;6.25;;;4.13;;
45065;SDS011;30830;53.704;10.004;2023-04-06T10:23:29;5.15;;;3.00;;
45065;SDS011;30830;53.704;10.004;2023-04-06T10:26:00;5.82;;;4.05;;
45065;SDS011;30830;53.704;10.004;2023-04-06T10:28:34;4.28;;;3.33;;
45065;SDS011;30830;53.704;10.004;2023-04-06T10:31:25;5.05;;;3.67;;
45065;SDS011;30830;53.704;10.004;2023-04-06T10:33:53;5.05;;;3.05;;
45065;SDS011;30830;53.704;10.004;2023-04-06T10:36:26;5.40;;;3.70;;
45065;SDS011;30830;53.704;10.004;2023-04-06T10:38:54;5.82;;;3.30;;
45065;SDS011;30830;53.704;10.004;2023-04-06T10:41:22;5.05;;;3.63;;
45065;SDS011;30830;53.704;10.004;2023-04-06T10:43:54;4.07;;;3.25;;
45065;SDS011;30830;53.704;10.004;2023-04-06T10:46:28;4.28;;;3.05;;
45065;SDS011;30830;53.704;10.004;2023-04-06T10:48:56;3.67;;;3.35;;
45065;SDS011;30830;53.704;10.004;2023-04-06T10:51:28;3.70;;;3.28;;
45065;SDS011;30830;53.704;10.004;2023-04-06T10:53:54;4.82;;;3.58;;
45065;SDS011;30830;53.704;10.004;2023-04-06T10:56:24;4.75;;;3.25;;
45065;SDS011;30830;53.704;10.004;2023-04-06T10:58:53;4.22;;;3.05;;
45065;SDS011;30830;53.704;10.004;2023-04-06T11:01:21;6.22;;;3.03;;
45065;SDS011;30830;53.704;10.004;2023-04-06T11:03:52;4.43;;;3.83;;
45065;SDS011;30830;53.704;10.004;2023-04-06T11:06:24;4.97;;;3.50;;
45065;SDS011;30830;53.704;10.004;2023-04-06T11:08:52;5.57;;;3.83;;
45065;SDS011;30830;53.704;10.004;2023-04-06T11:11:19;4.45;;;4.05;;
45065;SDS011;30830;53.704;10.004;2023-04-06T11:16:17;8.70;;;5.50;;
45065;SDS011;30830;53.704;10.004;2023-04-06T11:24:08;3.97;;;3.45;;
45065;SDS011;30830;53.704;10.004;2023-04-06T11:29:29;5.57;;;4.28;;
45065;SDS011;30830;53.704;10.004;2023-04-06T11:31:59;6.43;;;5.60;;
45065;SDS011;30830;53.704;10.004;2023-04-06T11:34:28;7.38;;;5.75;;
45065;SDS011;30830;53.704;10.004;2023-04-06T11:36:58;7.00;;;5.25;;
45065;SDS011;30830;53.704;10.004;2023-04-06T11:39:26;6.95;;;5.50;;
45065;SDS011;30830;53.704;10.004;2023-04-06T11:41:54;5.82;;;4.70;;
45065;SDS011;30830;53.704;10.004;2023-04-06T11:47:00;6.18;;;5.28;;
45065;SDS011;30830;53.704;10.004;2023-04-06T11:49:29;8.52;;;5.60;;
45065;SDS011;30830;53.704;10.004;2023-04-06T11:51:55;7.68;;;6.00;;
45065;SDS011;30830;53.704;10.004;2023-04-06T11:54:35;7.75;;;5.80;;
45065;SDS011;30830;53.704;10.004;2023-04-06T11:57:05;6.53;;;5.38;;
45065;SDS011;30830;53.704;10.004;2023-04-06T11:59:32;7.55;;;5.55;;
45065;SDS011;30830;53.704;10.004;2023-04-06T12:01:58;6.15;;;5.32;;
45065;SDS011;30830;53.704;10.004;2023-04-06T12:04:24;7.60;;;5.35;;
45065;SDS011;30830;53.704;10.004;2023-04-06T12:06:50;7.50;;;5.30;;
45065;SDS011;30830;53.704;10.004;2023-04-06T12:09:16;6.75;;;5.60;;
45065;SDS011;30830;53.704;10.004;2023-04-06T12:11:43;6.47;;;5.72;;
45065;SDS011;30830;53.704;10.004;2023-04-06T12:14:09;9.02;;;5.95;;
45065;SDS011;30830;53.704;10.004;2023-04-06T12:16:35;7.03;;;5.47;;
45065;SDS011;30830;53.704;10.004;2023-04-06T12:19:00;7.75;;;6.43;;
45065;SDS011;30830;53.704;10.004;2023-04-06T12:21:27;7.40;;;6.45;;
45065;SDS011;30830;53.704;10.004;2023-04-06T12:23:53;6.72;;;5.88;;
45065;SDS011;30830;53.704;10.004;2023-04-06T12:26:19;8.90;;;5.07;;
45065;SDS011;30830;53.704;10.004;2023-04-06T12:28:45;7.07;;;5.50;;
45065;SDS011;30830;53.704;10.004;2023-04-06T12:31:15;6.15;;;5.55;;
45065;SDS011;30830;53.704;10.004;2023-04-06T12:33:48;5.68;;;5.03;;
45065;SDS011;30830;53.704;10.004;2023-04-06T12:36:15;7.38;;;5.72;;
45065;SDS011;30830;53.704;10.004;2023-04-06T12:38:44;6.93;;;4.93;;
45065;SDS011;30830;53.704;10.004;2023-04-06T12:41:10;5.57;;;4.93;;
45065;SDS011;30830;53.704;10.004;2023-04-06T12:43:37;6.20;;;5.60;;
45065;SDS011;30830;53.704;10.004;2023-04-06T12:46:03;7.13;;;5.13;;
45065;SDS011;30830;53.704;10.004;2023-04-06T12:48:29;5.68;;;4.55;;
45065;SDS011;30830;53.704;10.004;2023-04-06T12:50:59;6.80;;;5.75;;
45065;SDS011;30830;53.704;10.004;2023-04-06T12:53:26;6.70;;;5.53;;
45065;SDS011;30830;53.704;10.004;2023-04-06T12:55:53;6.25;;;5.10;;
45065;SDS011;30830;53.704;10.004;2023-04-06T12:58:19;7.28;;;5.95;;
45065;SDS011;30830;53.704;10.004;2023-04-06T13:00:46;6.28;;;5.63;;
45065;SDS011;30830;53.704;10.004;2023-04-06T13:03:12;6.47;;;4.90;;
45065;SDS011;30830;53.704;10.004;2023-04-06T13:05:44;7.25;;;5.35;;
45065;SDS011;30830;53.704;10.004;2023-04-06T13:08:11;8.93;;;5.95;;
45065;SDS011;30830;53.704;10.004;2023-04-06T13:10:37;7.55;;;5.35;;
45065;SDS011;30830;53.704;10.004;2023-04-06T13:13:03;5.82;;;5.10;;
45065;SDS011;30830;53.704;10.004;2023-04-06T13:15:29;7.75;;;6.32;;
45065;SDS011;30830;53.704;10.004;2023-04-06T13:17:57;5.15;;;4.65;;
45065;SDS011;30830;53.704;10.004;2023-04-06T13:20:22;6.13;;;5.55;;
45065;SDS011;30830;53.704;10.004;2023-04-06T13:22:49;7.18;;;5.28;;
45065;SDS011;30830;53.704;10.004;2023-04-06T13:25:15;8.00;;;5.32;;
45065;SDS011;30830;53.704;10.004;2023-04-06T13:27:41;6.72;;;5.15;;
45065;SDS011;30830;53.704;10.004;2023-04-06T13:30:09;5.63;;;4.75;;
45065;SDS011;30830;53.704;10.004;2023-04-06T13:32:35;6.13;;;4.45;;
45065;SDS011;30830;53.704;10.004;2023-04-06T13:35:01;6.60;;;5.05;;
45065;SDS011;30830;53.704;10.004;2023-04-06T13:37:28;5.95;;;5.00;;
45065;SDS011;30830;53.704;10.004;2023-04-06T13:39:54;7.10;;;5.60;;
45065;SDS011;30830;53.704;10.004;2023-04-06T13:42:20;7.55;;;5.50;;
45065;SDS011;30830;53.704;10.004;2023-04-06T13:44:45;8.02;;;5.10;;
45065;SDS011;30830;53.704;10.004;2023-04-06T13:47:12;6.53;;;5.45;;
45065;SDS011;30830;53.704;10.004;2023-04-06T13:49:38;6.00;;;5.05;;
45065;SDS011;30830;53.704;10.004;2023-04-06T13:52:03;12.80;;;6.18;;
45065;SDS011;30830;53.704;10.004;2023-04-06T13:54:29;8.90;;;6.55;;
45065;SDS011;30830;53.704;10.004;2023-04-06T13:56:55;6.70;;;6.00;;
45065;SDS011;30830;53.704;10.004;2023-04-06T13:59:21;7.10;;;5.85;;
45065;SDS011;30830;53.704;10.004;2023-04-06T14:01:47;7.43;;;5.18;;
45065;SDS011;30830;53.704;10.004;2023-04-06T14:04:13;7.65;;;6.80;;
45065;SDS011;30830;53.704;10.004;2023-04-06T14:06:38;14.82;;;12.05;;
45065;SDS011;30830;53.704;10.004;2023-04-06T14:09:04;12.48;;;9.75;;
45065;SDS011;30830;53.704;10.004;2023-04-06T14:11:30;7.90;;;7.05;;
45065;SDS011;30830;53.704;10.004;2023-04-06T14:13:56;21.42;;;13.18;;
45065;SDS011;30830;53.704;10.004;2023-04-06T14:16:23;9.40;;;6.82;;
45065;SDS011;30830;53.704;10.004;2023-04-06T14:18:48;43.63;;;24.25;;
45065;SDS011;30830;53.704;10.004;2023-04-06T14:21:14;32.80;;;20.30;;
45065;SDS011;30830;53.704;10.004;2023-04-06T14:23:40;8.55;;;6.63;;
45065;SDS011;30830;53.704;10.004;2023-04-06T14:26:06;6.55;;;5.90;;
45065;SDS011;30830;53.704;10.004;2023-04-06T14:28:33;8.10;;;5.88;;
45065;SDS011;30830;53.704;10.004;2023-04-06T14:31:00;7.43;;;5.78;;
45065;SDS011;30830;53.704;10.004;2023-04-06T14:33:31;18.63;;;12.85;;
45065;SDS011;30830;53.704;10.004;2023-04-06T14:35:56;9.13;;;7.35;;
45065;SDS011;30830;53.704;10.004;2023-04-06T14:38:22;7.40;;;6.70;;
45065;SDS011;30830;53.704;10.004;2023-04-06T14:40:47;6.72;;;5.93;;